Flight Track Log - Related Links

Times and Time Zones

All times are in EST time to prevent confusion due to time zone crossing. See the SWA1899 flight status page for this flight to view local times or setup timezone preferences in your user account.

Time Position Orientation Groundspeed Altitude Reporting Facility
EST Latitude Longitude Course Direction KTS MPH feet Rate Location/Type
Sun 04:45:38 PM 37.6103 -122.3492 110° East 150 173 1,200  Level Oakland Center
Sun 04:46:39 PM 37.5867 -122.2681 110° East 220 253 4,100 3,295 Climbing Oakland Center
Sun 04:47:40 PM 37.5239 -122.2256 152° Southeast 251 289 7,900 3,148 Climbing Oakland Center
Sun 04:48:41 PM 37.4578 -122.1783 150° Southeast 270 311 10,500 2,862 Climbing Oakland Center
Sun 04:49:29 PM 37.4000 -122.1167 140° Southeast 329 379 13,100 3,111 Climbing Northern Cal TRACON
Sun 04:50:29 PM 37.3167 -122.0500 148° Southeast 336 387 16,100 2,471 Climbing Northern Cal TRACON
Sun 04:51:45 PM 37.2314 -121.9667 142° Southeast 355 409 18,700 2,321 Climbing Oakland Center
Sun 04:52:46 PM 37.1503 -121.8892 143° Southeast 368 423 21,400 2,410 Climbing Oakland Center
Sun 04:53:47 PM 37.0700 -121.8128 143° Southeast 365 420 23,600 1,561 Climbing Oakland Center
Sun 04:54:49 PM 36.9814 -121.7322 144° Southeast 394 453 24,600 1,415 Climbing Oakland Center
Sun 04:55:50 PM 36.8928 -121.6400 140° Southeast 412 474 26,500 1,475 Climbing Oakland Center
Sun 04:56:51 PM 36.7842 -121.5347 142° Southeast 433 498 27,600 1,475 Climbing Oakland Center
Sun 04:57:52 PM 36.6892 -121.4367 140° Southeast 442 509 29,500 1,377 Climbing Oakland Center
Sun 04:58:53 PM 36.5933 -121.3392 141° Southeast 447 514 30,400 1,415 Climbing Oakland Center
Sun 04:59:55 PM 36.4944 -121.2392 141° Southeast 456 525 32,400 1,610 Climbing Oakland Center
Sun 05:00:56 PM 36.3983 -121.1431 141° Southeast 448 516 33,700 1,131 Climbing Oakland Center
Sun 05:01:57 PM 36.2994 -121.0439 141° Southeast 458 527 34,700 1,082 Climbing Oakland Center
Sun 05:02:58 PM 36.2003 -120.9469 142° Southeast 456 525 35,900 934 Climbing Oakland Center
Sun 05:03:59 PM 36.1008 -120.8475 141° Southeast 460 529 36,600 541 Climbing Oakland Center
Sun 05:05:00 PM 35.9778 -120.7258 141° Southeast 474 545 37,000 197 Climbing Oakland Center
Sun 05:06:01 PM 35.8750 -120.6242 141° Southeast 476 548 37,000  Level Oakland Center
Sun 05:07:02 PM 35.7717 -120.5222 141° Southeast 475 547 37,000  Level Oakland Center
Sun 05:09:04 PM 35.5631 -120.3192 142° Southeast 476 548 37,000  Level Oakland Center
Sun 05:10:06 PM 35.4658 -120.2242 141° Southeast 473 544 37,000 -49 Level Oakland Center
Sun 05:11:07 PM 35.3531 -120.1164 142° Southeast 468 539 36,900 -47 Descending Oakland Center
Sun 05:12:15 PM 35.2525 -120.0122 140° Southeast 467 537 36,900  Level Los Angeles Center
Sun 05:13:17 PM 35.1439 -119.8781 135° Southeast 462 532 36,900 48 Level Los Angeles Center
Sun 05:14:19 PM 35.0714 -119.7886 135° Southeast 462 532 37,000 48 Climbing Los Angeles Center
Sun 05:15:21 PM 34.9639 -119.6564 135° Southeast 458 527 37,000  Level Los Angeles Center
Sun 05:16:23 PM 34.8717 -119.5464 136° Southeast 463 533 37,000  Level Los Angeles Center
Sun 05:17:25 PM 34.7797 -119.4333 135° Southeast 469 540 37,000  Level Los Angeles Center
Sun 05:18:26 PM 34.6869 -119.3222 135° Southeast 469 540 37,000  Level Los Angeles Center
Sun 05:19:28 PM 34.5853 -119.2017 136° Southeast 473 544 37,000  Level Los Angeles Center
Sun 05:20:30 PM 34.4908 -119.0900 136° Southeast 475 547 37,000  Level Los Angeles Center
Sun 05:21:31 PM 34.3975 -118.9803 136° Southeast 470 541 37,000  Level Los Angeles Center
Sun 05:22:33 PM 34.3036 -118.8683 135° Southeast 472 543 37,000  Level Los Angeles Center
Sun 05:23:35 PM 34.1903 -118.7353 136° Southeast 474 545 37,000  Level Los Angeles Center
Sun 05:24:37 PM 34.0958 -118.6247 136° Southeast 474 545 37,000  Level Los Angeles Center
Sun 05:25:38 PM 34.0214 -118.5350 135° Southeast 473 544 37,000  Level Los Angeles Center
Sun 05:26:40 PM 33.9072 -118.4003 136° Southeast 477 549 37,000 -1,113 Level Los Angeles Center
Sun 05:27:42 PM 33.8189 -118.2883 134° Southeast 482 555 34,700 -2,710 Descending Los Angeles Center
Sun 05:28:44 PM 33.7200 -118.1592 133° Southeast 479 551 31,400 -2,806 Descending Los Angeles Center
Sun 05:29:46 PM 33.6306 -118.0456 133° Southeast 467 537 28,900 -2,878 Descending Los Angeles Center
Sun 05:30:47 PM 33.5433 -117.9353 133° Southeast 457 526 25,500 -2,878 Descending Los Angeles Center
Sun 05:31:49 PM 33.4547 -117.8244 134° Southeast 460 529 23,000 -2,609 Descending Los Angeles Center
Sun 05:32:19 PM 33.4000 -117.7500 131° Southeast 436 502 21,500 -2,226 Descending Southern California TRACON
Sun 05:32:51 PM 33.3725 -117.7197 137° Southeast 436 502 20,700 -2,106 Descending Los Angeles Center
Sun 05:33:53 PM 33.2800 -117.6022 133° Southeast 407 468 18,200 -2,177 Descending Los Angeles Center
Sun 05:34:55 PM 33.2011 -117.5211 139° Southeast 382 440 16,200 -1,839 Descending Los Angeles Center
Sun 05:35:57 PM 33.1192 -117.4525 145° Southeast 365 420 14,400 -1,403 Descending Los Angeles Center
Sun 05:36:59 PM 33.0417 -117.3944 148° Southeast 339 390 13,300 -1,511 Descending Los Angeles Center
Sun 05:38:08 PM 32.9500 -117.3167 145° Southeast 311 358 11,100 -1,767 Descending Southern California TRACON
Sun 05:39:08 PM 32.8833 -117.2667 148° Southeast 297 342 9,500 -1,785 Descending Southern California TRACON
Sun 05:40:09 PM 32.8333 -117.2000 132° Southeast 302 348 7,500 -1,835 Descending Southern California TRACON
Sun 05:41:09 PM 32.8167 -117.1000 101° East 278 320 5,800 -1,250 Descending Southern California TRACON
Sun 05:42:09 PM 32.8000 -117.0167 103° East 251 289 5,000 -400 Descending Southern California TRACON
Sun 05:43:09 PM 32.7667 -116.9500 121° Southeast 227 261 5,000  Level Southern California TRACON
Sun 05:44:09 PM 32.7167 -116.9333 164° South 228 262 5,000 -158 Level Southern California TRACON
Sun 05:45:03 PM 32.6833 -116.9667 220° Southwest 205 236 4,700 -842 Descending Southern California TRACON
Sun 05:46:03 PM 32.7000 -117.0333 287° West 194 223 3,400 -1,300 Descending Southern California TRACON
Sun 05:47:03 PM 32.7167 -117.0833 292° West 190 219 2,100 -1,200 Descending Southern California TRACON
Sun 05:48:03 PM 32.7167 -117.1333 270° West 146 168 1,000 -1,067 Descending Southern California TRACON
Sun 05:48:33 PM 32.7272 -117.1583 297° West 160 184 500 -391 Descending Los Angeles Center
Sun 05:49:35 PM 32.7378 -117.2003 287° West 156 180 400 -97 Descending Los Angeles Center
Sun 05:51:00 PM 32.7336 -117.1897 90° East  Level Estimated

Login

Don't have an account? Register now (free) for customized features, flight alerts, and more!